sensor_id;sensor_type;location;lat;lon;timestamp;P1;durP1;ratioP1;P2;durP2;ratioP2
8268;SDS011;4174;48.304;16.364;2024-01-15T00:00:22;19.15;;;8.27;;
8268;SDS011;4174;48.304;16.364;2024-01-15T00:06:28;21.43;;;8.87;;
8268;SDS011;4174;48.304;16.364;2024-01-15T00:18:49;23.70;;;8.02;;
8268;SDS011;4174;48.304;16.364;2024-01-15T00:24:56;21.60;;;8.40;;
8268;SDS011;4174;48.304;16.364;2024-01-15T00:31:01;24.37;;;10.85;;
8268;SDS011;4174;48.304;16.364;2024-01-15T00:37:07;22.40;;;10.50;;
8268;SDS011;4174;48.304;16.364;2024-01-15T00:43:12;23.90;;;10.00;;
8268;SDS011;4174;48.304;16.364;2024-01-15T00:49:17;19.85;;;10.73;;
8268;SDS011;4174;48.304;16.364;2024-01-15T00:55:22;19.15;;;9.80;;
8268;SDS011;4174;48.304;16.364;2024-01-15T01:01:27;21.12;;;10.50;;
8268;SDS011;4174;48.304;16.364;2024-01-15T01:07:32;21.83;;;10.77;;
8268;SDS011;4174;48.304;16.364;2024-01-15T01:13:38;23.48;;;12.55;;
8268;SDS011;4174;48.304;16.364;2024-01-15T01:19:43;25.23;;;12.93;;
8268;SDS011;4174;48.304;16.364;2024-01-15T01:31:57;20.70;;;7.40;;
8268;SDS011;4174;48.304;16.364;2024-01-15T01:38:03;15.97;;;5.80;;
8268;SDS011;4174;48.304;16.364;2024-01-15T01:44:10;18.93;;;6.67;;
8268;SDS011;4174;48.304;16.364;2024-01-15T01:50:16;19.70;;;6.93;;
8268;SDS011;4174;48.304;16.364;2024-01-15T01:56:21;19.80;;;7.23;;
8268;SDS011;4174;48.304;16.364;2024-01-15T02:02:29;21.05;;;7.53;;
8268;SDS011;4174;48.304;16.364;2024-01-15T02:08:37;21.67;;;7.37;;
8268;SDS011;4174;48.304;16.364;2024-01-15T02:20:57;19.30;;;6.60;;
8268;SDS011;4174;48.304;16.364;2024-01-15T02:27:03;19.97;;;7.13;;
8268;SDS011;4174;48.304;16.364;2024-01-15T02:33:08;19.00;;;6.50;;
8268;SDS011;4174;48.304;16.364;2024-01-15T02:39:15;18.40;;;6.80;;
8268;SDS011;4174;48.304;16.364;2024-01-15T02:45:20;20.30;;;7.20;;
8268;SDS011;4174;48.304;16.364;2024-01-15T02:51:28;16.70;;;6.05;;
8268;SDS011;4174;48.304;16.364;2024-01-15T02:57:34;17.67;;;6.73;;
8268;SDS011;4174;48.304;16.364;2024-01-15T03:03:39;16.73;;;7.10;;
8268;SDS011;4174;48.304;16.364;2024-01-15T03:09:43;19.25;;;8.15;;
8268;SDS011;4174;48.304;16.364;2024-01-15T03:15:46;17.35;;;7.40;;
8268;SDS011;4174;48.304;16.364;2024-01-15T03:21:50;19.27;;;6.77;;
8268;SDS011;4174;48.304;16.364;2024-01-15T03:34:07;16.75;;;6.30;;
8268;SDS011;4174;48.304;16.364;2024-01-15T03:40:11;18.50;;;6.27;;
8268;SDS011;4174;48.304;16.364;2024-01-15T03:46:18;15.85;;;5.55;;
8268;SDS011;4174;48.304;16.364;2024-01-15T03:52:24;14.13;;;5.28;;
8268;SDS011;4174;48.304;16.364;2024-01-15T03:58:28;14.77;;;4.90;;
8268;SDS011;4174;48.304;16.364;2024-01-15T04:04:35;14.73;;;5.15;;
8268;SDS011;4174;48.304;16.364;2024-01-15T04:10:41;14.83;;;5.17;;
8268;SDS011;4174;48.304;16.364;2024-01-15T04:16:47;16.40;;;5.60;;
8268;SDS011;4174;48.304;16.364;2024-01-15T04:22:51;16.00;;;5.73;;
8268;SDS011;4174;48.304;16.364;2024-01-15T04:29:00;17.27;;;6.50;;
8268;SDS011;4174;48.304;16.364;2024-01-15T04:35:05;18.77;;;6.90;;
8268;SDS011;4174;48.304;16.364;2024-01-15T04:41:12;20.23;;;8.47;;
8268;SDS011;4174;48.304;16.364;2024-01-15T04:47:19;22.37;;;10.33;;
8268;SDS011;4174;48.304;16.364;2024-01-15T04:53:25;21.95;;;11.32;;
8268;SDS011;4174;48.304;16.364;2024-01-15T04:59:30;21.52;;;11.85;;
8268;SDS011;4174;48.304;16.364;2024-01-15T05:05:36;21.77;;;12.18;;
8268;SDS011;4174;48.304;16.364;2024-01-15T05:11:45;21.15;;;11.23;;
8268;SDS011;4174;48.304;16.364;2024-01-15T05:17:51;20.98;;;10.10;;
8268;SDS011;4174;48.304;16.364;2024-01-15T05:23:59;24.27;;;12.47;;
8268;SDS011;4174;48.304;16.364;2024-01-15T05:30:06;23.80;;;10.85;;
8268;SDS011;4174;48.304;16.364;2024-01-15T05:36:12;20.57;;;10.87;;
8268;SDS011;4174;48.304;16.364;2024-01-15T05:42:20;23.87;;;12.40;;
8268;SDS011;4174;48.304;16.364;2024-01-15T05:48:26;23.47;;;9.00;;
8268;SDS011;4174;48.304;16.364;2024-01-15T05:54:32;19.30;;;7.97;;
8268;SDS011;4174;48.304;16.364;2024-01-15T06:00:37;19.27;;;7.90;;
8268;SDS011;4174;48.304;16.364;2024-01-15T06:06:43;19.30;;;8.00;;
8268;SDS011;4174;48.304;16.364;2024-01-15T06:12:49;17.25;;;7.20;;
8268;SDS011;4174;48.304;16.364;2024-01-15T06:18:55;19.05;;;6.50;;
8268;SDS011;4174;48.304;16.364;2024-01-15T06:25:00;17.87;;;6.32;;
8268;SDS011;4174;48.304;16.364;2024-01-15T06:31:07;15.50;;;5.70;;
8268;SDS011;4174;48.304;16.364;2024-01-15T06:37:12;15.98;;;6.30;;
8268;SDS011;4174;48.304;16.364;2024-01-15T06:43:17;17.10;;;6.70;;
8268;SDS011;4174;48.304;16.364;2024-01-15T06:49:23;17.27;;;6.95;;
8268;SDS011;4174;48.304;16.364;2024-01-15T06:55:32;15.43;;;7.03;;
8268;SDS011;4174;48.304;16.364;2024-01-15T07:01:37;20.77;;;7.47;;
8268;SDS011;4174;48.304;16.364;2024-01-15T07:07:42;19.00;;;8.48;;
8268;SDS011;4174;48.304;16.364;2024-01-15T07:13:48;19.33;;;8.80;;
8268;SDS011;4174;48.304;16.364;2024-01-15T07:19:55;19.00;;;6.85;;
8268;SDS011;4174;48.304;16.364;2024-01-15T07:26:03;19.52;;;6.37;;
8268;SDS011;4174;48.304;16.364;2024-01-15T07:32:08;19.77;;;6.30;;
8268;SDS011;4174;48.304;16.364;2024-01-15T07:38:14;16.40;;;5.53;;
8268;SDS011;4174;48.304;16.364;2024-01-15T07:44:18;15.37;;;5.53;;
8268;SDS011;4174;48.304;16.364;2024-01-15T07:50:27;15.82;;;5.68;;
8268;SDS011;4174;48.304;16.364;2024-01-15T07:56:34;15.63;;;5.30;;
8268;SDS011;4174;48.304;16.364;2024-01-15T08:03:02;18.23;;;5.90;;
8268;SDS011;4174;48.304;16.364;2024-01-15T08:09:08;16.37;;;5.50;;
8268;SDS011;4174;48.304;16.364;2024-01-15T08:15:14;17.20;;;5.57;;
8268;SDS011;4174;48.304;16.364;2024-01-15T08:21:23;17.50;;;5.43;;
8268;SDS011;4174;48.304;16.364;2024-01-15T08:27:29;15.13;;;5.32;;
8268;SDS011;4174;48.304;16.364;2024-01-15T08:33:35;15.93;;;5.60;;
8268;SDS011;4174;48.304;16.364;2024-01-15T08:39:41;16.05;;;5.37;;
8268;SDS011;4174;48.304;16.364;2024-01-15T08:45:45;13.68;;;4.82;;
8268;SDS011;4174;48.304;16.364;2024-01-15T08:58:03;12.57;;;4.80;;
8268;SDS011;4174;48.304;16.364;2024-01-15T09:04:10;13.05;;;4.70;;
8268;SDS011;4174;48.304;16.364;2024-01-15T09:10:16;13.85;;;4.80;;
8268;SDS011;4174;48.304;16.364;2024-01-15T09:16:21;13.23;;;4.70;;
8268;SDS011;4174;48.304;16.364;2024-01-15T09:22:27;13.27;;;4.60;;
8268;SDS011;4174;48.304;16.364;2024-01-15T09:28:32;12.68;;;4.40;;
8268;SDS011;4174;48.304;16.364;2024-01-15T09:34:39;11.88;;;4.55;;
8268;SDS011;4174;48.304;16.364;2024-01-15T09:40:46;11.70;;;4.30;;
8268;SDS011;4174;48.304;16.364;2024-01-15T09:46:55;10.67;;;4.40;;
8268;SDS011;4174;48.304;16.364;2024-01-15T09:59:11;10.67;;;4.20;;
8268;SDS011;4174;48.304;16.364;2024-01-15T10:05:20;11.32;;;3.97;;
8268;SDS011;4174;48.304;16.364;2024-01-15T10:11:27;11.53;;;4.10;;
8268;SDS011;4174;48.304;16.364;2024-01-15T10:17:31;11.27;;;3.60;;
8268;SDS011;4174;48.304;16.364;2024-01-15T10:23:39;10.30;;;3.90;;
8268;SDS011;4174;48.304;16.364;2024-01-15T10:29:43;10.20;;;3.90;;
8268;SDS011;4174;48.304;16.364;2024-01-15T10:35:49;9.95;;;3.37;;
8268;SDS011;4174;48.304;16.364;2024-01-15T10:41:54;10.30;;;3.58;;
8268;SDS011;4174;48.304;16.364;2024-01-15T10:48:00;9.33;;;3.37;;
8268;SDS011;4174;48.304;16.364;2024-01-15T10:54:05;8.83;;;3.40;;
8268;SDS011;4174;48.304;16.364;2024-01-15T11:00:12;9.07;;;3.40;;
8268;SDS011;4174;48.304;16.364;2024-01-15T11:06:19;9.50;;;3.30;;
8268;SDS011;4174;48.304;16.364;2024-01-15T11:12:24;8.33;;;2.93;;
8268;SDS011;4174;48.304;16.364;2024-01-15T11:18:35;10.27;;;3.00;;
8268;SDS011;4174;48.304;16.364;2024-01-15T11:24:39;8.20;;;3.00;;
8268;SDS011;4174;48.304;16.364;2024-01-15T11:30:46;8.17;;;2.90;;
8268;SDS011;4174;48.304;16.364;2024-01-15T11:43:10;8.23;;;2.73;;
8268;SDS011;4174;48.304;16.364;2024-01-15T11:49:14;9.53;;;3.23;;
8268;SDS011;4174;48.304;16.364;2024-01-15T11:55:22;9.40;;;3.10;;
8268;SDS011;4174;48.304;16.364;2024-01-15T12:01:27;7.87;;;2.87;;
8268;SDS011;4174;48.304;16.364;2024-01-15T12:07:33;8.40;;;2.72;;
8268;SDS011;4174;48.304;16.364;2024-01-15T12:13:43;8.60;;;2.75;;
8268;SDS011;4174;48.304;16.364;2024-01-15T12:25:59;9.32;;;3.50;;
8268;SDS011;4174;48.304;16.364;2024-01-15T12:32:07;9.35;;;3.40;;
8268;SDS011;4174;48.304;16.364;2024-01-15T12:38:12;8.73;;;3.20;;
8268;SDS011;4174;48.304;16.364;2024-01-15T12:44:17;8.13;;;2.90;;
8268;SDS011;4174;48.304;16.364;2024-01-15T12:50:23;8.85;;;2.83;;
8268;SDS011;4174;48.304;16.364;2024-01-15T12:56:25;8.10;;;2.90;;
8268;SDS011;4174;48.304;16.364;2024-01-15T13:02:30;8.30;;;3.00;;
8268;SDS011;4174;48.304;16.364;2024-01-15T13:08:34;9.30;;;3.30;;
8268;SDS011;4174;48.304;16.364;2024-01-15T13:14:40;8.37;;;2.70;;
8268;SDS011;4174;48.304;16.364;2024-01-15T13:20:47;9.67;;;3.17;;
8268;SDS011;4174;48.304;16.364;2024-01-15T13:26:51;8.23;;;2.58;;
8268;SDS011;4174;48.304;16.364;2024-01-15T13:32:57;9.60;;;2.40;;
8268;SDS011;4174;48.304;16.364;2024-01-15T13:39:04;7.87;;;2.40;;
8268;SDS011;4174;48.304;16.364;2024-01-15T13:51:21;8.47;;;3.00;;
8268;SDS011;4174;48.304;16.364;2024-01-15T13:57:26;8.63;;;2.73;;
8268;SDS011;4174;48.304;16.364;2024-01-15T14:03:29;8.32;;;2.90;;
8268;SDS011;4174;48.304;16.364;2024-01-15T14:09:35;9.05;;;2.40;;
8268;SDS011;4174;48.304;16.364;2024-01-15T14:15:45;7.70;;;2.70;;
8268;SDS011;4174;48.304;16.364;2024-01-15T14:21:50;8.00;;;2.65;;
8268;SDS011;4174;48.304;16.364;2024-01-15T14:27:58;7.68;;;2.50;;
8268;SDS011;4174;48.304;16.364;2024-01-15T14:34:03;8.90;;;2.70;;
8268;SDS011;4174;48.304;16.364;2024-01-15T14:40:08;8.03;;;2.60;;
8268;SDS011;4174;48.304;16.364;2024-01-15T14:46:14;7.93;;;2.60;;
8268;SDS011;4174;48.304;16.364;2024-01-15T14:52:21;7.18;;;2.37;;
8268;SDS011;4174;48.304;16.364;2024-01-15T14:58:26;7.87;;;2.60;;
8268;SDS011;4174;48.304;16.364;2024-01-15T15:04:32;9.70;;;2.40;;
8268;SDS011;4174;48.304;16.364;2024-01-15T15:10:40;7.87;;;2.30;;
8268;SDS011;4174;48.304;16.364;2024-01-15T15:16:45;7.32;;;2.10;;
8268;SDS011;4174;48.304;16.364;2024-01-15T15:22:52;6.77;;;1.80;;
8268;SDS011;4174;48.304;16.364;2024-01-15T15:28:59;6.75;;;1.90;;
8268;SDS011;4174;48.304;16.364;2024-01-15T15:35:05;6.83;;;2.00;;
8268;SDS011;4174;48.304;16.364;2024-01-15T15:41:14;7.13;;;2.00;;
8268;SDS011;4174;48.304;16.364;2024-01-15T15:47:22;6.50;;;1.93;;
8268;SDS011;4174;48.304;16.364;2024-01-15T15:53:31;7.33;;;1.80;;
8268;SDS011;4174;48.304;16.364;2024-01-15T15:59:36;6.97;;;1.60;;
8268;SDS011;4174;48.304;16.364;2024-01-15T16:05:42;7.03;;;2.17;;
8268;SDS011;4174;48.304;16.364;2024-01-15T16:11:52;6.32;;;1.90;;
8268;SDS011;4174;48.304;16.364;2024-01-15T16:17:58;6.73;;;1.80;;
8268;SDS011;4174;48.304;16.364;2024-01-15T16:24:05;5.33;;;1.63;;
8268;SDS011;4174;48.304;16.364;2024-01-15T16:30:13;6.87;;;1.90;;
8268;SDS011;4174;48.304;16.364;2024-01-15T16:36:28;6.23;;;1.90;;
8268;SDS011;4174;48.304;16.364;2024-01-15T16:42:37;5.90;;;1.87;;
8268;SDS011;4174;48.304;16.364;2024-01-15T16:48:41;5.97;;;1.70;;
8268;SDS011;4174;48.304;16.364;2024-01-15T16:54:52;6.40;;;1.70;;
8268;SDS011;4174;48.304;16.364;2024-01-15T17:00:57;5.10;;;1.55;;
8268;SDS011;4174;48.304;16.364;2024-01-15T17:07:07;5.57;;;1.40;;
8268;SDS011;4174;48.304;16.364;2024-01-15T17:13:12;5.80;;;1.80;;
8268;SDS011;4174;48.304;16.364;2024-01-15T17:19:22;6.67;;;1.77;;
8268;SDS011;4174;48.304;16.364;2024-01-15T17:31:39;5.97;;;1.73;;
8268;SDS011;4174;48.304;16.364;2024-01-15T17:44:19;7.80;;;2.30;;
8268;SDS011;4174;48.304;16.364;2024-01-15T17:50:23;7.97;;;2.20;;
8268;SDS011;4174;48.304;16.364;2024-01-15T17:56:27;7.30;;;2.33;;
8268;SDS011;4174;48.304;16.364;2024-01-15T18:02:35;7.65;;;2.65;;
8268;SDS011;4174;48.304;16.364;2024-01-15T18:08:39;8.33;;;2.50;;
8268;SDS011;4174;48.304;16.364;2024-01-15T18:14:44;8.20;;;2.70;;
8268;SDS011;4174;48.304;16.364;2024-01-15T18:20:49;7.55;;;2.40;;
8268;SDS011;4174;48.304;16.364;2024-01-15T18:26:57;8.63;;;2.67;;
8268;SDS011;4174;48.304;16.364;2024-01-15T18:33:03;7.07;;;2.17;;
8268;SDS011;4174;48.304;16.364;2024-01-15T18:39:08;6.80;;;1.98;;
8268;SDS011;4174;48.304;16.364;2024-01-15T18:45:15;5.00;;;1.50;;
8268;SDS011;4174;48.304;16.364;2024-01-15T18:51:23;5.40;;;1.80;;
8268;SDS011;4174;48.304;16.364;2024-01-15T18:57:29;6.00;;;1.60;;
8268;SDS011;4174;48.304;16.364;2024-01-15T19:03:35;4.37;;;1.20;;
8268;SDS011;4174;48.304;16.364;2024-01-15T19:09:39;5.10;;;1.30;;
8268;SDS011;4174;48.304;16.364;2024-01-15T19:15:45;4.60;;;1.20;;
8268;SDS011;4174;48.304;16.364;2024-01-15T19:21:52;4.03;;;1.10;;
8268;SDS011;4174;48.304;16.364;2024-01-15T19:27:58;4.40;;;1.30;;
8268;SDS011;4174;48.304;16.364;2024-01-15T19:34:03;4.30;;;1.10;;
8268;SDS011;4174;48.304;16.364;2024-01-15T19:40:10;4.27;;;1.20;;
8268;SDS011;4174;48.304;16.364;2024-01-15T19:46:17;4.80;;;1.33;;
8268;SDS011;4174;48.304;16.364;2024-01-15T19:52:25;4.63;;;1.10;;
8268;SDS011;4174;48.304;16.364;2024-01-15T20:04:42;6.50;;;1.77;;
8268;SDS011;4174;48.304;16.364;2024-01-15T20:10:48;6.43;;;1.73;;
8268;SDS011;4174;48.304;16.364;2024-01-15T20:17:07;4.60;;;1.30;;
8268;SDS011;4174;48.304;16.364;2024-01-15T20:23:14;5.03;;;1.40;;
8268;SDS011;4174;48.304;16.364;2024-01-15T20:29:21;4.43;;;1.12;;
8268;SDS011;4174;48.304;16.364;2024-01-15T20:35:29;4.87;;;1.20;;
8268;SDS011;4174;48.304;16.364;2024-01-15T20:41:33;5.53;;;1.60;;
8268;SDS011;4174;48.304;16.364;2024-01-15T20:47:39;6.20;;;1.93;;
8268;SDS011;4174;48.304;16.364;2024-01-15T20:53:44;5.77;;;1.70;;
8268;SDS011;4174;48.304;16.364;2024-01-15T20:59:49;7.53;;;1.70;;
8268;SDS011;4174;48.304;16.364;2024-01-15T21:05:57;5.75;;;1.80;;
8268;SDS011;4174;48.304;16.364;2024-01-15T21:12:00;6.60;;;2.00;;
8268;SDS011;4174;48.304;16.364;2024-01-15T21:18:06;5.47;;;1.80;;
8268;SDS011;4174;48.304;16.364;2024-01-15T21:24:13;4.87;;;1.70;;
8268;SDS011;4174;48.304;16.364;2024-01-15T21:30:21;6.67;;;2.10;;
8268;SDS011;4174;48.304;16.364;2024-01-15T21:36:26;5.93;;;2.00;;
8268;SDS011;4174;48.304;16.364;2024-01-15T21:42:35;6.43;;;1.90;;
8268;SDS011;4174;48.304;16.364;2024-01-15T21:48:40;5.20;;;1.85;;
8268;SDS011;4174;48.304;16.364;2024-01-15T21:54:48;6.20;;;1.87;;
8268;SDS011;4174;48.304;16.364;2024-01-15T22:00:55;5.68;;;1.85;;
8268;SDS011;4174;48.304;16.364;2024-01-15T22:07:04;5.60;;;1.80;;
8268;SDS011;4174;48.304;16.364;2024-01-15T22:13:11;7.60;;;2.50;;
8268;SDS011;4174;48.304;16.364;2024-01-15T22:19:16;6.65;;;2.10;;
8268;SDS011;4174;48.304;16.364;2024-01-15T22:31:32;6.33;;;2.00;;
8268;SDS011;4174;48.304;16.364;2024-01-15T22:37:36;5.47;;;1.77;;
8268;SDS011;4174;48.304;16.364;2024-01-15T22:43:40;6.50;;;1.87;;
8268;SDS011;4174;48.304;16.364;2024-01-15T22:49:48;5.70;;;1.80;;
8268;SDS011;4174;48.304;16.364;2024-01-15T22:55:55;6.47;;;1.75;;
8268;SDS011;4174;48.304;16.364;2024-01-15T23:02:01;5.90;;;1.65;;
8268;SDS011;4174;48.304;16.364;2024-01-15T23:08:07;5.10;;;1.60;;
8268;SDS011;4174;48.304;16.364;2024-01-15T23:14:12;5.80;;;1.60;;
8268;SDS011;4174;48.304;16.364;2024-01-15T23:20:19;6.22;;;1.90;;
8268;SDS011;4174;48.304;16.364;2024-01-15T23:26:24;6.27;;;1.90;;
8268;SDS011;4174;48.304;16.364;2024-01-15T23:32:29;6.78;;;1.90;;
8268;SDS011;4174;48.304;16.364;2024-01-15T23:44:59;6.03;;;2.03;;
8268;SDS011;4174;48.304;16.364;2024-01-15T23:51:03;6.80;;;2.20;;
8268;SDS011;4174;48.304;16.364;2024-01-15T23:57:07;7.37;;;2.20;;
